Accueil
METAR-TAF:

METAR-TAF

Aéroports :

Berne, Suisse

Aéroport international de Berne

latitude: 46-55N, longitude: 007-30E, altitude: 505 m

Observation

Le bulletin a été fait il y a 13 minutes, à 12:20 UTC
Vent 7 kt de ouest/nord-ouest
Température 23°C
Humidité 61%
Pression 1013 hPa
Visibilité 10 km ou plus
Quelques nuages à une hauteur de 4100 ft
Nuages fragmentés à une hauteur de 19000 ft

METAR: LSZB 271220Z 29007KT 9999 FEW041 BKN190 23/15 Q1013 NOSIG

Heure: 14:33 (12:33 UTC)

Prévision

Le bulletin a été fait il y a 1 heure et 8 minutes, à 11:25 UTC
Prévision valable du 27 à 12 UTC au 27 à 21 UTC
Vent 3 kt de direction variable
Visibilité 10 km ou plus
Nuages fragmentés à une hauteur de 5000 ft
Probabilité 30% :
Temporairement
du 27 à 14 UTC au 27 à 18 UTC
averses de pluie

TAF: LSZB 271125Z 2712/2721 VRB03KT 9999 BKN050 PROB30 TEMPO 2714/2718 SHRA

Observations et prévisions météorologiques de plus de 4000 aéroports (messages METAR et TAF).

Les stations disponibles sont représentées par des disques jaunes et rouges sur la carte.

Passer la souris dessus pour voir le nom de la station.

Cliquer dessus pour voir les observations et prévisions météorologiques.

Pour changer de carte: cliquez sur les boutons verts avec une croix noire pour zoomer, sur le bouton vert avec un tiret pour effectuer un zoom arrière, ou sur les flèches vertes pour les cartes adjacentes.


METAR-TAF: